Terminal Aerodrome Forecast
Issued by NWS

Home | Current Version | Previous Version | Text Only | Print | Product List | Glossary On
Versions: 1 2 3 4 5 6 7 8 9 10 11 12 13 14 15 16 17
245
FTUS42 KKEY 232324
TAFMTH
TAF
KMTH 232324Z 2400/2424 16008KT P6SM FEW020 SCT200
     FM240600 19011G18KT P6SM SCT020 SCT100 BKN200
     FM241000 20012G21KT P6SM VCSH SCT015 SCT050 BKN100=

USA.gov is the U.S. government's official web portal to all federal, state and local government web resources and services.